Turkey Ridge, South Dakota
Current Conditions -  °F | °C
As of 11:56 PM on Wednesday 28 Jan 2015 (Local Time) from KFSD Reporting Station
Overcast Overcast  
Wind Chill: 22°   Ceiling: 1900
Heat Index: 34°   Visibility: 10mi
Dew Point: 29°   Wind: 23mph
Humidity: 82%   Direction: 330°NNW
Pressure: 30.01"   Gusts: 36mph
Location:  43.2923°N, 97.2262°W
Report Text: KFSD 290556Z 33020G31KT 10SM OVC019 01/M02 A3001 RMK AO2 PK WND 34031/0535 SLP175 T00111017 10033 20011 400780006 51044
Loading
Personal Weather Stations






























Interactive Weather Map New forecast layout! Learn more

10-Day Weather Forecast

Advertisements
Track Severe Weather on mobile